sensor_id;sensor_type;location;lat;lon;timestamp;P1;durP1;ratioP1;P2;durP2;ratioP2
35257;SDS011;21385;50.878;8.050;2022-09-09T00:00:41;4.55;;;0.90;;
35257;SDS011;21385;50.878;8.050;2022-09-09T00:03:32;1.95;;;0.70;;
35257;SDS011;21385;50.878;8.050;2022-09-09T00:06:26;2.08;;;0.85;;
35257;SDS011;21385;50.878;8.050;2022-09-09T00:08:59;0.75;;;0.73;;
35257;SDS011;21385;50.878;8.050;2022-09-09T00:11:33;1.83;;;1.13;;
35257;SDS011;21385;50.878;8.050;2022-09-09T00:14:08;3.88;;;0.70;;
35257;SDS011;21385;50.878;8.050;2022-09-09T00:16:40;0.68;;;0.68;;
35257;SDS011;21385;50.878;8.050;2022-09-09T00:30:23;6.35;;;1.23;;
35257;SDS011;21385;50.878;8.050;2022-09-09T00:32:54;2.25;;;0.95;;
35257;SDS011;21385;50.878;8.050;2022-09-09T00:35:25;0.98;;;0.80;;
35257;SDS011;21385;50.878;8.050;2022-09-09T00:38:02;3.47;;;1.20;;
35257;SDS011;21385;50.878;8.050;2022-09-09T00:40:41;1.08;;;0.88;;
35257;SDS011;21385;50.878;8.050;2022-09-09T00:51:46;0.93;;;0.73;;
35257;SDS011;21385;50.878;8.050;2022-09-09T00:57:34;0.55;;;0.55;;
35257;SDS011;21385;50.878;8.050;2022-09-09T01:02:31;0.85;;;0.70;;
35257;SDS011;21385;50.878;8.050;2022-09-09T01:05:12;0.65;;;0.60;;
35257;SDS011;21385;50.878;8.050;2022-09-09T01:07:44;1.05;;;0.70;;
35257;SDS011;21385;50.878;8.050;2022-09-09T01:10:26;6.75;;;0.90;;
35257;SDS011;21385;50.878;8.050;2022-09-09T01:13:17;1.05;;;0.68;;
35257;SDS011;21385;50.878;8.050;2022-09-09T01:15:48;1.58;;;0.98;;
35257;SDS011;21385;50.878;8.050;2022-09-09T01:18:16;0.68;;;0.50;;
35257;SDS011;21385;50.878;8.050;2022-09-09T01:26:36;0.90;;;0.90;;
35257;SDS011;21385;50.878;8.050;2022-09-09T01:29:06;2.95;;;0.85;;
35257;SDS011;21385;50.878;8.050;2022-09-09T01:34:18;2.25;;;1.08;;
35257;SDS011;21385;50.878;8.050;2022-09-09T01:36:46;0.63;;;0.63;;
35257;SDS011;21385;50.878;8.050;2022-09-09T01:39:25;1.02;;;0.93;;
35257;SDS011;21385;50.878;8.050;2022-09-09T01:41:52;4.30;;;0.77;;
35257;SDS011;21385;50.878;8.050;2022-09-09T01:44:20;3.55;;;0.70;;
35257;SDS011;21385;50.878;8.050;2022-09-09T01:46:46;2.38;;;1.35;;
35257;SDS011;21385;50.878;8.050;2022-09-09T01:49:12;1.38;;;1.15;;
35257;SDS011;21385;50.878;8.050;2022-09-09T01:51:38;3.80;;;1.77;;
35257;SDS011;21385;50.878;8.050;2022-09-09T01:54:05;1.92;;;1.27;;
35257;SDS011;21385;50.878;8.050;2022-09-09T01:59:23;2.30;;;1.23;;
35257;SDS011;21385;50.878;8.050;2022-09-09T02:02:13;6.18;;;2.10;;
35257;SDS011;21385;50.878;8.050;2022-09-09T02:04:43;4.30;;;1.70;;
35257;SDS011;21385;50.878;8.050;2022-09-09T02:10:29;2.50;;;1.15;;
35257;SDS011;21385;50.878;8.050;2022-09-09T02:13:07;1.00;;;0.90;;
35257;SDS011;21385;50.878;8.050;2022-09-09T02:18:13;0.95;;;0.80;;
35257;SDS011;21385;50.878;8.050;2022-09-09T02:20:41;1.00;;;0.90;;
35257;SDS011;21385;50.878;8.050;2022-09-09T02:23:09;1.58;;;0.90;;
35257;SDS011;21385;50.878;8.050;2022-09-09T02:25:37;3.83;;;1.15;;
35257;SDS011;21385;50.878;8.050;2022-09-09T02:28:06;5.03;;;1.25;;
35257;SDS011;21385;50.878;8.050;2022-09-09T02:30:34;1.02;;;0.70;;
35257;SDS011;21385;50.878;8.050;2022-09-09T02:33:03;5.53;;;2.20;;
35257;SDS011;21385;50.878;8.050;2022-09-09T02:35:31;7.30;;;2.28;;
35257;SDS011;21385;50.878;8.050;2022-09-09T02:38:02;2.80;;;1.85;;
35257;SDS011;21385;50.878;8.050;2022-09-09T02:40:31;8.07;;;1.92;;
35257;SDS011;21385;50.878;8.050;2022-09-09T02:42:57;2.50;;;1.45;;
35257;SDS011;21385;50.878;8.050;2022-09-09T02:45:27;1.90;;;1.08;;
35257;SDS011;21385;50.878;8.050;2022-09-09T02:50:54;1.40;;;0.80;;
35257;SDS011;21385;50.878;8.050;2022-09-09T02:53:47;2.33;;;1.10;;
35257;SDS011;21385;50.878;8.050;2022-09-09T02:56:21;1.38;;;1.27;;
35257;SDS011;21385;50.878;8.050;2022-09-09T02:58:50;1.40;;;1.20;;
35257;SDS011;21385;50.878;8.050;2022-09-09T03:01:16;3.95;;;1.80;;
35257;SDS011;21385;50.878;8.050;2022-09-09T03:03:42;2.47;;;2.03;;
35257;SDS011;21385;50.878;8.050;2022-09-09T03:06:09;6.03;;;1.30;;
35257;SDS011;21385;50.878;8.050;2022-09-09T03:08:36;2.20;;;1.50;;
35257;SDS011;21385;50.878;8.050;2022-09-09T03:11:02;4.63;;;1.63;;
35257;SDS011;21385;50.878;8.050;2022-09-09T03:13:28;6.25;;;2.85;;
35257;SDS011;21385;50.878;8.050;2022-09-09T03:15:54;2.72;;;1.85;;
35257;SDS011;21385;50.878;8.050;2022-09-09T03:18:20;7.72;;;2.42;;
35257;SDS011;21385;50.878;8.050;2022-09-09T03:20:46;3.35;;;2.15;;
35257;SDS011;21385;50.878;8.050;2022-09-09T03:23:13;4.47;;;1.58;;
35257;SDS011;21385;50.878;8.050;2022-09-09T03:25:39;5.53;;;1.58;;
35257;SDS011;21385;50.878;8.050;2022-09-09T03:28:11;4.63;;;1.80;;
35257;SDS011;21385;50.878;8.050;2022-09-09T03:30:37;3.67;;;2.38;;
35257;SDS011;21385;50.878;8.050;2022-09-09T03:33:02;5.35;;;2.45;;
35257;SDS011;21385;50.878;8.050;2022-09-09T03:35:28;3.38;;;2.30;;
35257;SDS011;21385;50.878;8.050;2022-09-09T03:37:54;2.72;;;1.77;;
35257;SDS011;21385;50.878;8.050;2022-09-09T03:40:20;5.63;;;2.58;;
35257;SDS011;21385;50.878;8.050;2022-09-09T03:42:46;4.63;;;2.20;;
35257;SDS011;21385;50.878;8.050;2022-09-09T03:45:13;2.22;;;1.65;;
35257;SDS011;21385;50.878;8.050;2022-09-09T03:47:38;11.05;;;4.75;;
35257;SDS011;21385;50.878;8.050;2022-09-09T03:50:04;7.57;;;3.63;;
35257;SDS011;21385;50.878;8.050;2022-09-09T03:52:34;5.10;;;2.47;;
35257;SDS011;21385;50.878;8.050;2022-09-09T03:55:04;4.47;;;2.60;;
35257;SDS011;21385;50.878;8.050;2022-09-09T03:57:33;3.95;;;3.35;;
35257;SDS011;21385;50.878;8.050;2022-09-09T04:00:00;8.38;;;3.70;;
35257;SDS011;21385;50.878;8.050;2022-09-09T04:02:32;8.50;;;3.45;;
35257;SDS011;21385;50.878;8.050;2022-09-09T04:04:57;8.70;;;2.30;;
35257;SDS011;21385;50.878;8.050;2022-09-09T04:07:23;6.90;;;2.83;;
35257;SDS011;21385;50.878;8.050;2022-09-09T04:09:48;3.75;;;2.50;;
35257;SDS011;21385;50.878;8.050;2022-09-09T04:12:14;2.67;;;1.80;;
35257;SDS011;21385;50.878;8.050;2022-09-09T04:14:39;2.13;;;1.50;;
35257;SDS011;21385;50.878;8.050;2022-09-09T04:17:05;1.65;;;1.25;;
35257;SDS011;21385;50.878;8.050;2022-09-09T04:19:31;3.78;;;1.38;;
35257;SDS011;21385;50.878;8.050;2022-09-09T04:21:57;5.70;;;2.38;;
35257;SDS011;21385;50.878;8.050;2022-09-09T04:24:23;3.05;;;1.70;;
35257;SDS011;21385;50.878;8.050;2022-09-09T04:26:49;5.55;;;2.15;;
35257;SDS011;21385;50.878;8.050;2022-09-09T04:29:15;5.32;;;2.75;;
35257;SDS011;21385;50.878;8.050;2022-09-09T04:31:40;5.45;;;3.78;;
35257;SDS011;21385;50.878;8.050;2022-09-09T04:34:07;6.55;;;3.50;;
35257;SDS011;21385;50.878;8.050;2022-09-09T04:36:34;4.72;;;2.75;;
35257;SDS011;21385;50.878;8.050;2022-09-09T04:39:00;4.13;;;2.15;;
35257;SDS011;21385;50.878;8.050;2022-09-09T04:41:26;2.17;;;1.80;;
35257;SDS011;21385;50.878;8.050;2022-09-09T04:43:52;6.47;;;2.20;;
35257;SDS011;21385;50.878;8.050;2022-09-09T04:46:18;4.88;;;2.55;;
35257;SDS011;21385;50.878;8.050;2022-09-09T04:48:45;3.08;;;2.03;;
35257;SDS011;21385;50.878;8.050;2022-09-09T04:51:12;14.32;;;1.23;;
35257;SDS011;21385;50.878;8.050;2022-09-09T04:53:38;6.80;;;2.97;;
35257;SDS011;21385;50.878;8.050;2022-09-09T04:56:08;5.97;;;2.00;;
35257;SDS011;21385;50.878;8.050;2022-09-09T04:58:40;2.28;;;1.52;;
35257;SDS011;21385;50.878;8.050;2022-09-09T05:01:16;8.70;;;2.10;;
35257;SDS011;21385;50.878;8.050;2022-09-09T05:03:49;4.78;;;2.72;;
35257;SDS011;21385;50.878;8.050;2022-09-09T05:06:16;3.22;;;1.55;;
35257;SDS011;21385;50.878;8.050;2022-09-09T05:08:44;2.05;;;1.35;;
35257;SDS011;21385;50.878;8.050;2022-09-09T05:11:29;5.10;;;1.20;;
35257;SDS011;21385;50.878;8.050;2022-09-09T05:13:57;2.85;;;1.83;;
35257;SDS011;21385;50.878;8.050;2022-09-09T05:16:23;5.90;;;1.92;;
35257;SDS011;21385;50.878;8.050;2022-09-09T05:18:48;6.28;;;1.15;;
35257;SDS011;21385;50.878;8.050;2022-09-09T05:21:16;1.80;;;0.90;;
35257;SDS011;21385;50.878;8.050;2022-09-09T05:23:44;2.90;;;1.08;;
35257;SDS011;21385;50.878;8.050;2022-09-09T05:26:14;1.40;;;0.75;;
35257;SDS011;21385;50.878;8.050;2022-09-09T05:28:41;2.10;;;1.02;;
35257;SDS011;21385;50.878;8.050;2022-09-09T05:31:07;3.45;;;0.90;;
35257;SDS011;21385;50.878;8.050;2022-09-09T05:33:36;0.88;;;0.82;;
35257;SDS011;21385;50.878;8.050;2022-09-09T05:36:04;4.82;;;0.73;;
35257;SDS011;21385;50.878;8.050;2022-09-09T05:38:32;0.50;;;0.50;;
35257;SDS011;21385;50.878;8.050;2022-09-09T05:40:59;1.10;;;0.70;;
35257;SDS011;21385;50.878;8.050;2022-09-09T05:43:25;1.02;;;0.68;;
35257;SDS011;21385;50.878;8.050;2022-09-09T05:46:08;2.55;;;1.10;;
35257;SDS011;21385;50.878;8.050;2022-09-09T05:48:36;3.55;;;0.80;;
35257;SDS011;21385;50.878;8.050;2022-09-09T05:51:04;1.17;;;0.70;;
35257;SDS011;21385;50.878;8.050;2022-09-09T05:53:34;2.90;;;0.80;;
35257;SDS011;21385;50.878;8.050;2022-09-09T05:56:03;2.00;;;0.65;;
35257;SDS011;21385;50.878;8.050;2022-09-09T05:58:34;5.15;;;0.90;;
35257;SDS011;21385;50.878;8.050;2022-09-09T06:01:00;1.35;;;0.93;;
35257;SDS011;21385;50.878;8.050;2022-09-09T06:03:29;6.13;;;0.82;;
35257;SDS011;21385;50.878;8.050;2022-09-09T06:05:58;0.98;;;0.80;;
35257;SDS011;21385;50.878;8.050;2022-09-09T06:08:25;2.10;;;0.90;;
35257;SDS011;21385;50.878;8.050;2022-09-09T06:10:51;2.20;;;0.95;;
35257;SDS011;21385;50.878;8.050;2022-09-09T06:13:17;5.18;;;1.15;;
35257;SDS011;21385;50.878;8.050;2022-09-09T06:15:52;6.00;;;1.00;;
35257;SDS011;21385;50.878;8.050;2022-09-09T06:18:18;0.85;;;0.47;;
35257;SDS011;21385;50.878;8.050;2022-09-09T06:21:44;8.57;;;0.90;;
35257;SDS011;21385;50.878;8.050;2022-09-09T06:23:41;1.40;;;0.80;;
35257;SDS011;21385;50.878;8.050;2022-09-09T06:26:10;3.63;;;1.05;;
35257;SDS011;21385;50.878;8.050;2022-09-09T06:28:37;3.78;;;1.02;;
35257;SDS011;21385;50.878;8.050;2022-09-09T06:31:07;4.43;;;1.20;;
35257;SDS011;21385;50.878;8.050;2022-09-09T06:36:04;2.35;;;0.75;;
35257;SDS011;21385;50.878;8.050;2022-09-09T06:38:30;2.55;;;1.00;;
35257;SDS011;21385;50.878;8.050;2022-09-09T06:40:56;9.35;;;0.77;;
35257;SDS011;21385;50.878;8.050;2022-09-09T06:43:27;2.38;;;0.75;;
35257;SDS011;21385;50.878;8.050;2022-09-09T06:46:00;2.53;;;1.00;;
35257;SDS011;21385;50.878;8.050;2022-09-09T06:48:26;1.58;;;1.23;;
35257;SDS011;21385;50.878;8.050;2022-09-09T06:53:52;1.48;;;0.68;;
35257;SDS011;21385;50.878;8.050;2022-09-09T06:58:50;3.88;;;1.10;;
35257;SDS011;21385;50.878;8.050;2022-09-09T07:01:18;2.38;;;1.25;;
35257;SDS011;21385;50.878;8.050;2022-09-09T07:03:46;3.22;;;1.02;;
35257;SDS011;21385;50.878;8.050;2022-09-09T07:06:14;2.78;;;1.23;;
35257;SDS011;21385;50.878;8.050;2022-09-09T07:08:42;6.88;;;1.58;;
35257;SDS011;21385;50.878;8.050;2022-09-09T07:11:08;8.50;;;1.33;;
35257;SDS011;21385;50.878;8.050;2022-09-09T07:13:34;4.10;;;0.98;;
35257;SDS011;21385;50.878;8.050;2022-09-09T07:16:07;2.53;;;0.77;;
35257;SDS011;21385;50.878;8.050;2022-09-09T07:18:34;1.25;;;0.80;;
35257;SDS011;21385;50.878;8.050;2022-09-09T07:21:00;3.60;;;1.60;;
35257;SDS011;21385;50.878;8.050;2022-09-09T07:23:28;5.05;;;1.40;;
35257;SDS011;21385;50.878;8.050;2022-09-09T07:25:54;4.82;;;1.35;;
35257;SDS011;21385;50.878;8.050;2022-09-09T07:28:21;2.75;;;1.40;;
35257;SDS011;21385;50.878;8.050;2022-09-09T07:30:57;5.43;;;1.75;;
35257;SDS011;21385;50.878;8.050;2022-09-09T07:33:26;0.63;;;0.63;;
35257;SDS011;21385;50.878;8.050;2022-09-09T07:35:52;4.50;;;1.30;;
35257;SDS011;21385;50.878;8.050;2022-09-09T07:38:18;6.57;;;1.23;;
35257;SDS011;21385;50.878;8.050;2022-09-09T07:40:45;4.63;;;1.15;;
35257;SDS011;21385;50.878;8.050;2022-09-09T07:43:11;2.00;;;1.08;;
35257;SDS011;21385;50.878;8.050;2022-09-09T07:45:37;6.10;;;1.23;;
35257;SDS011;21385;50.878;8.050;2022-09-09T07:48:03;3.97;;;1.42;;
35257;SDS011;21385;50.878;8.050;2022-09-09T07:50:30;5.55;;;1.08;;
35257;SDS011;21385;50.878;8.050;2022-09-09T07:52:56;7.43;;;1.33;;
35257;SDS011;21385;50.878;8.050;2022-09-09T07:55:21;7.82;;;1.23;;
35257;SDS011;21385;50.878;8.050;2022-09-09T07:57:50;1.27;;;0.80;;
35257;SDS011;21385;50.878;8.050;2022-09-09T08:00:16;2.00;;;1.13;;
35257;SDS011;21385;50.878;8.050;2022-09-09T08:02:43;11.32;;;1.95;;
35257;SDS011;21385;50.878;8.050;2022-09-09T08:05:09;4.63;;;1.65;;
35257;SDS011;21385;50.878;8.050;2022-09-09T08:07:35;2.17;;;0.52;;
35257;SDS011;21385;50.878;8.050;2022-09-09T08:10:00;2.42;;;1.17;;
35257;SDS011;21385;50.878;8.050;2022-09-09T08:12:27;2.25;;;0.82;;
35257;SDS011;21385;50.878;8.050;2022-09-09T08:14:52;2.30;;;1.35;;
35257;SDS011;21385;50.878;8.050;2022-09-09T08:17:19;3.30;;;1.58;;
35257;SDS011;21385;50.878;8.050;2022-09-09T08:19:44;3.65;;;0.90;;
35257;SDS011;21385;50.878;8.050;2022-09-09T08:22:10;3.55;;;0.90;;
35257;SDS011;21385;50.878;8.050;2022-09-09T08:24:36;3.80;;;0.70;;
35257;SDS011;21385;50.878;8.050;2022-09-09T08:27:01;6.07;;;0.68;;
35257;SDS011;21385;50.878;8.050;2022-09-09T08:29:27;2.53;;;0.80;;
35257;SDS011;21385;50.878;8.050;2022-09-09T08:31:54;1.88;;;0.90;;
35257;SDS011;21385;50.878;8.050;2022-09-09T08:34:22;2.00;;;0.80;;
35257;SDS011;21385;50.878;8.050;2022-09-09T08:36:49;3.60;;;1.30;;
35257;SDS011;21385;50.878;8.050;2022-09-09T08:39:16;6.00;;;1.45;;
35257;SDS011;21385;50.878;8.050;2022-09-09T08:50:26;2.13;;;0.93;;
35257;SDS011;21385;50.878;8.050;2022-09-09T08:53:02;2.10;;;0.85;;
35257;SDS011;21385;50.878;8.050;2022-09-09T08:58:12;2.13;;;0.90;;
35257;SDS011;21385;50.878;8.050;2022-09-09T09:03:28;5.32;;;1.17;;
35257;SDS011;21385;50.878;8.050;2022-09-09T09:08:35;1.60;;;0.77;;
35257;SDS011;21385;50.878;8.050;2022-09-09T09:11:08;2.55;;;0.70;;
35257;SDS011;21385;50.878;8.050;2022-09-09T09:19:08;2.25;;;0.88;;
35257;SDS011;21385;50.878;8.050;2022-09-09T09:21:40;2.65;;;0.85;;
35257;SDS011;21385;50.878;8.050;2022-09-09T09:26:48;2.47;;;0.90;;
35257;SDS011;21385;50.878;8.050;2022-09-09T09:29:15;1.42;;;0.70;;
35257;SDS011;21385;50.878;8.050;2022-09-09T09:31:48;5.95;;;1.17;;
35257;SDS011;21385;50.878;8.050;2022-09-09T09:34:21;2.40;;;1.02;;
35257;SDS011;21385;50.878;8.050;2022-09-09T09:36:54;3.33;;;1.08;;
35257;SDS011;21385;50.878;8.050;2022-09-09T09:41:50;0.98;;;0.88;;
35257;SDS011;21385;50.878;8.050;2022-09-09T09:46:52;1.73;;;1.33;;
35257;SDS011;21385;50.878;8.050;2022-09-09T09:49:18;1.08;;;0.80;;
35257;SDS011;21385;50.878;8.050;2022-09-09T09:51:44;6.07;;;0.80;;
35257;SDS011;21385;50.878;8.050;2022-09-09T09:56:38;3.15;;;0.93;;
35257;SDS011;21385;50.878;8.050;2022-09-09T09:59:05;1.92;;;0.60;;
35257;SDS011;21385;50.878;8.050;2022-09-09T10:01:44;4.30;;;1.25;;
35257;SDS011;21385;50.878;8.050;2022-09-09T10:04:14;2.00;;;0.70;;
35257;SDS011;21385;50.878;8.050;2022-09-09T10:06:41;1.63;;;0.70;;
35257;SDS011;21385;50.878;8.050;2022-09-09T10:09:26;0.93;;;0.50;;
35257;SDS011;21385;50.878;8.050;2022-09-09T10:12:05;1.85;;;1.13;;
35257;SDS011;21385;50.878;8.050;2022-09-09T10:20:45;2.08;;;0.93;;
35257;SDS011;21385;50.878;8.050;2022-09-09T10:26:39;2.05;;;0.57;;
35257;SDS011;21385;50.878;8.050;2022-09-09T10:34:41;0.80;;;0.57;;
35257;SDS011;21385;50.878;8.050;2022-09-09T10:37:41;1.98;;;0.85;;
35257;SDS011;21385;50.878;8.050;2022-09-09T10:43:07;3.40;;;0.93;;
35257;SDS011;21385;50.878;8.050;2022-09-09T10:56:54;6.30;;;0.60;;
35257;SDS011;21385;50.878;8.050;2022-09-09T10:59:33;3.03;;;0.73;;
35257;SDS011;21385;50.878;8.050;2022-09-09T11:04:55;2.92;;;1.05;;
35257;SDS011;21385;50.878;8.050;2022-09-09T11:07:47;2.67;;;0.85;;
35257;SDS011;21385;50.878;8.050;2022-09-09T11:10:16;1.27;;;0.80;;
35257;SDS011;21385;50.878;8.050;2022-09-09T11:12:49;3.72;;;0.95;;
35257;SDS011;21385;50.878;8.050;2022-09-09T11:15:20;1.23;;;0.77;;
35257;SDS011;21385;50.878;8.050;2022-09-09T11:17:56;5.25;;;1.13;;
35257;SDS011;21385;50.878;8.050;2022-09-09T11:20:26;3.58;;;0.85;;
35257;SDS011;21385;50.878;8.050;2022-09-09T11:22:56;0.50;;;0.43;;
35257;SDS011;21385;50.878;8.050;2022-09-09T11:25:42;1.85;;;0.93;;
35257;SDS011;21385;50.878;8.050;2022-09-09T11:42:18;5.13;;;2.50;;
35257;SDS011;21385;50.878;8.050;2022-09-09T11:44:45;1.52;;;1.00;;
35257;SDS011;21385;50.878;8.050;2022-09-09T11:47:28;1.05;;;0.73;;
35257;SDS011;21385;50.878;8.050;2022-09-09T11:50:40;1.63;;;1.02;;
35257;SDS011;21385;50.878;8.050;2022-09-09T11:52:44;2.00;;;1.02;;
35257;SDS011;21385;50.878;8.050;2022-09-09T11:55:12;3.33;;;1.33;;
35257;SDS011;21385;50.878;8.050;2022-09-09T11:57:56;3.25;;;1.42;;
35257;SDS011;21385;50.878;8.050;2022-09-09T12:00:33;7.90;;;0.70;;
35257;SDS011;21385;50.878;8.050;2022-09-09T12:03:02;3.88;;;0.70;;
35257;SDS011;21385;50.878;8.050;2022-09-09T12:05:39;4.10;;;0.82;;
35257;SDS011;21385;50.878;8.050;2022-09-09T12:08:09;2.80;;;0.60;;
35257;SDS011;21385;50.878;8.050;2022-09-09T12:10:38;0.80;;;0.68;;
35257;SDS011;21385;50.878;8.050;2022-09-09T12:13:13;2.00;;;0.80;;
35257;SDS011;21385;50.878;8.050;2022-09-09T12:15:52;1.88;;;0.88;;
35257;SDS011;21385;50.878;8.050;2022-09-09T12:18:23;1.65;;;0.80;;
35257;SDS011;21385;50.878;8.050;2022-09-09T12:21:16;1.00;;;0.80;;
35257;SDS011;21385;50.878;8.050;2022-09-09T12:24:02;1.58;;;1.30;;
35257;SDS011;21385;50.878;8.050;2022-09-09T12:26:34;8.82;;;0.57;;
35257;SDS011;21385;50.878;8.050;2022-09-09T12:34:26;0.47;;;0.47;;
35257;SDS011;21385;50.878;8.050;2022-09-09T12:37:24;1.98;;;0.77;;
35257;SDS011;21385;50.878;8.050;2022-09-09T12:40:22;4.20;;;0.80;;
35257;SDS011;21385;50.878;8.050;2022-09-09T12:42:49;2.33;;;0.82;;
35257;SDS011;21385;50.878;8.050;2022-09-09T12:45:16;1.27;;;0.90;;
35257;SDS011;21385;50.878;8.050;2022-09-09T12:47:54;2.17;;;1.02;;
35257;SDS011;21385;50.878;8.050;2022-09-09T12:50:25;2.30;;;0.73;;
35257;SDS011;21385;50.878;8.050;2022-09-09T12:52:57;1.90;;;0.50;;
35257;SDS011;21385;50.878;8.050;2022-09-09T12:55:30;1.95;;;0.75;;
35257;SDS011;21385;50.878;8.050;2022-09-09T12:57:58;2.30;;;0.80;;
35257;SDS011;21385;50.878;8.050;2022-09-09T13:00:29;1.02;;;0.70;;
35257;SDS011;21385;50.878;8.050;2022-09-09T13:02:56;0.68;;;0.65;;
35257;SDS011;21385;50.878;8.050;2022-09-09T13:05:25;1.10;;;0.70;;
35257;SDS011;21385;50.878;8.050;2022-09-09T13:08:00;1.42;;;0.55;;
35257;SDS011;21385;50.878;8.050;2022-09-09T13:10:31;4.68;;;0.68;;
35257;SDS011;21385;50.878;8.050;2022-09-09T13:13:00;1.10;;;0.70;;
35257;SDS011;21385;50.878;8.050;2022-09-09T13:15:27;2.28;;;0.60;;
35257;SDS011;21385;50.878;8.050;2022-09-09T13:18:11;1.77;;;0.68;;
35257;SDS011;21385;50.878;8.050;2022-09-09T13:20:38;1.65;;;0.50;;
35257;SDS011;21385;50.878;8.050;2022-09-09T13:23:04;0.80;;;0.47;;
35257;SDS011;21385;50.878;8.050;2022-09-09T13:25:30;2.58;;;0.73;;
35257;SDS011;21385;50.878;8.050;2022-09-09T13:27:59;1.30;;;0.73;;
35257;SDS011;21385;50.878;8.050;2022-09-09T13:30:31;0.65;;;0.50;;
35257;SDS011;21385;50.878;8.050;2022-09-09T13:33:17;0.75;;;0.32;;
35257;SDS011;21385;50.878;8.050;2022-09-09T13:35:48;0.80;;;0.68;;
35257;SDS011;21385;50.878;8.050;2022-09-09T13:38:15;3.88;;;0.70;;
35257;SDS011;21385;50.878;8.050;2022-09-09T13:40:51;0.57;;;0.43;;
35257;SDS011;21385;50.878;8.050;2022-09-09T13:43:22;0.30;;;0.30;;
35257;SDS011;21385;50.878;8.050;2022-09-09T13:46:03;0.95;;;0.82;;
35257;SDS011;21385;50.878;8.050;2022-09-09T13:48:31;2.40;;;0.93;;
35257;SDS011;21385;50.878;8.050;2022-09-09T13:51:02;1.85;;;0.95;;
35257;SDS011;21385;50.878;8.050;2022-09-09T13:53:30;1.58;;;0.88;;
35257;SDS011;21385;50.878;8.050;2022-09-09T13:55:56;1.42;;;0.80;;
35257;SDS011;21385;50.878;8.050;2022-09-09T13:58:23;2.13;;;0.45;;
35257;SDS011;21385;50.878;8.050;2022-09-09T14:00:50;2.03;;;0.70;;
35257;SDS011;21385;50.878;8.050;2022-09-09T14:03:16;0.65;;;0.43;;
35257;SDS011;21385;50.878;8.050;2022-09-09T14:05:43;0.82;;;0.65;;
35257;SDS011;21385;50.878;8.050;2022-09-09T14:08:11;1.38;;;0.30;;
35257;SDS011;21385;50.878;8.050;2022-09-09T14:10:42;4.07;;;0.60;;
35257;SDS011;21385;50.878;8.050;2022-09-09T14:13:08;1.35;;;0.80;;
35257;SDS011;21385;50.878;8.050;2022-09-09T14:15:33;1.40;;;1.20;;
35257;SDS011;21385;50.878;8.050;2022-09-09T14:17:59;6.43;;;0.50;;
35257;SDS011;21385;50.878;8.050;2022-09-09T14:20:24;0.65;;;0.63;;
35257;SDS011;21385;50.878;8.050;2022-09-09T14:22:50;6.10;;;0.55;;
35257;SDS011;21385;50.878;8.050;2022-09-09T14:25:16;2.20;;;0.90;;
35257;SDS011;21385;50.878;8.050;2022-09-09T14:27:42;0.75;;;0.40;;
35257;SDS011;21385;50.878;8.050;2022-09-09T14:30:08;0.90;;;0.60;;
35257;SDS011;21385;50.878;8.050;2022-09-09T14:32:34;7.63;;;1.00;;
35257;SDS011;21385;50.878;8.050;2022-09-09T14:35:00;2.13;;;0.60;;
35257;SDS011;21385;50.878;8.050;2022-09-09T14:37:26;1.42;;;0.70;;
35257;SDS011;21385;50.878;8.050;2022-09-09T14:39:52;0.98;;;0.70;;
35257;SDS011;21385;50.878;8.050;2022-09-09T14:42:18;3.03;;;0.70;;
35257;SDS011;21385;50.878;8.050;2022-09-09T14:44:44;1.20;;;0.65;;
35257;SDS011;21385;50.878;8.050;2022-09-09T14:47:10;0.85;;;0.52;;
35257;SDS011;21385;50.878;8.050;2022-09-09T14:49:35;7.63;;;0.80;;
35257;SDS011;21385;50.878;8.050;2022-09-09T14:52:02;2.92;;;0.50;;
35257;SDS011;21385;50.878;8.050;2022-09-09T14:54:28;2.40;;;1.02;;
35257;SDS011;21385;50.878;8.050;2022-09-09T14:56:54;1.13;;;0.70;;
35257;SDS011;21385;50.878;8.050;2022-09-09T14:59:22;1.48;;;0.60;;
35257;SDS011;21385;50.878;8.050;2022-09-09T15:01:47;5.10;;;1.08;;
35257;SDS011;21385;50.878;8.050;2022-09-09T15:04:13;2.35;;;0.75;;
35257;SDS011;21385;50.878;8.050;2022-09-09T15:06:39;1.77;;;0.70;;
35257;SDS011;21385;50.878;8.050;2022-09-09T15:09:07;1.10;;;0.75;;
35257;SDS011;21385;50.878;8.050;2022-09-09T15:11:34;6.75;;;1.00;;
35257;SDS011;21385;50.878;8.050;2022-09-09T15:16:31;1.50;;;0.68;;
35257;SDS011;21385;50.878;8.050;2022-09-09T15:18:58;1.30;;;0.77;;
35257;SDS011;21385;50.878;8.050;2022-09-09T15:21:26;1.30;;;0.90;;
35257;SDS011;21385;50.878;8.050;2022-09-09T15:23:54;4.50;;;1.17;;
35257;SDS011;21385;50.878;8.050;2022-09-09T15:26:20;5.43;;;1.25;;
35257;SDS011;21385;50.878;8.050;2022-09-09T15:28:46;3.47;;;1.33;;
35257;SDS011;21385;50.878;8.050;2022-09-09T15:31:20;1.63;;;0.93;;
35257;SDS011;21385;50.878;8.050;2022-09-09T15:33:50;0.73;;;0.73;;
35257;SDS011;21385;50.878;8.050;2022-09-09T15:36:19;1.70;;;0.57;;
35257;SDS011;21385;50.878;8.050;2022-09-09T15:38:46;1.75;;;0.73;;
35257;SDS011;21385;50.878;8.050;2022-09-09T15:41:13;0.90;;;0.70;;
35257;SDS011;21385;50.878;8.050;2022-09-09T15:43:39;1.95;;;1.08;;
35257;SDS011;21385;50.878;8.050;2022-09-09T15:48:45;7.47;;;1.70;;
35257;SDS011;21385;50.878;8.050;2022-09-09T15:51:11;1.05;;;0.60;;
35257;SDS011;21385;50.878;8.050;2022-09-09T15:53:38;3.13;;;0.60;;
35257;SDS011;21385;50.878;8.050;2022-09-09T15:56:07;1.02;;;0.40;;
35257;SDS011;21385;50.878;8.050;2022-09-09T15:58:33;6.45;;;0.85;;
35257;SDS011;21385;50.878;8.050;2022-09-09T16:01:01;0.73;;;0.60;;
35257;SDS011;21385;50.878;8.050;2022-09-09T16:06:01;0.73;;;0.55;;
35257;SDS011;21385;50.878;8.050;2022-09-09T16:08:34;2.22;;;0.57;;
35257;SDS011;21385;50.878;8.050;2022-09-09T16:11:07;2.90;;;0.60;;
35257;SDS011;21385;50.878;8.050;2022-09-09T16:13:35;0.75;;;0.50;;
35257;SDS011;21385;50.878;8.050;2022-09-09T16:16:02;3.20;;;1.05;;
35257;SDS011;21385;50.878;8.050;2022-09-09T16:18:35;5.47;;;0.80;;
35257;SDS011;21385;50.878;8.050;2022-09-09T16:21:01;0.50;;;0.50;;
35257;SDS011;21385;50.878;8.050;2022-09-09T16:23:27;1.00;;;0.80;;
35257;SDS011;21385;50.878;8.050;2022-09-09T16:25:54;2.03;;;1.02;;
35257;SDS011;21385;50.878;8.050;2022-09-09T16:28:20;1.42;;;0.80;;
35257;SDS011;21385;50.878;8.050;2022-09-09T16:30:46;2.92;;;0.88;;
35257;SDS011;21385;50.878;8.050;2022-09-09T16:33:11;1.80;;;0.70;;
35257;SDS011;21385;50.878;8.050;2022-09-09T16:35:39;1.77;;;0.63;;
35257;SDS011;21385;50.878;8.050;2022-09-09T16:38:05;3.03;;;0.82;;
35257;SDS011;21385;50.878;8.050;2022-09-09T16:40:33;1.95;;;0.90;;
35257;SDS011;21385;50.878;8.050;2022-09-09T16:42:59;0.90;;;0.60;;
35257;SDS011;21385;50.878;8.050;2022-09-09T16:45:26;0.60;;;0.50;;
35257;SDS011;21385;50.878;8.050;2022-09-09T16:47:52;0.75;;;0.60;;
35257;SDS011;21385;50.878;8.050;2022-09-09T16:50:18;3.85;;;0.63;;
35257;SDS011;21385;50.878;8.050;2022-09-09T16:52:44;7.18;;;0.90;;
35257;SDS011;21385;50.878;8.050;2022-09-09T16:55:09;1.48;;;0.77;;
35257;SDS011;21385;50.878;8.050;2022-09-09T16:57:35;1.08;;;0.40;;
35257;SDS011;21385;50.878;8.050;2022-09-09T17:00:00;4.10;;;0.73;;
35257;SDS011;21385;50.878;8.050;2022-09-09T17:02:29;0.43;;;0.43;;
35257;SDS011;21385;50.878;8.050;2022-09-09T17:04:55;0.68;;;0.35;;
35257;SDS011;21385;50.878;8.050;2022-09-09T17:07:20;1.92;;;0.60;;
35257;SDS011;21385;50.878;8.050;2022-09-09T17:09:47;0.35;;;0.20;;
35257;SDS011;21385;50.878;8.050;2022-09-09T17:12:13;0.95;;;0.55;;
35257;SDS011;21385;50.878;8.050;2022-09-09T17:14:38;1.65;;;0.40;;
35257;SDS011;21385;50.878;8.050;2022-09-09T17:17:04;0.55;;;0.35;;
35257;SDS011;21385;50.878;8.050;2022-09-09T17:19:30;1.45;;;0.65;;
35257;SDS011;21385;50.878;8.050;2022-09-09T17:21:56;0.30;;;0.30;;
35257;SDS011;21385;50.878;8.050;2022-09-09T17:24:25;0.50;;;0.40;;
35257;SDS011;21385;50.878;8.050;2022-09-09T17:26:51;1.00;;;0.40;;